sensor_id;sensor_type;location;lat;lon;timestamp;pressure;altitude;pressure_sealevel;temperature
66403;BMP180;53212;52.112;5.144;2022-12-18T00:01:37;102757.60;;;-3.06
66403;BMP180;53212;52.112;5.144;2022-12-18T00:04:05;102750.00;;;-3.10
66403;BMP180;53212;52.112;5.144;2022-12-18T00:06:32;102740.80;;;-3.10
66403;BMP180;53212;52.112;5.144;2022-12-18T00:09:01;102729.40;;;-3.12
66403;BMP180;53212;52.112;5.144;2022-12-18T00:11:30;102719.40;;;-3.10
66403;BMP180;53212;52.112;5.144;2022-12-18T00:13:58;102716.20;;;-3.14
66403;BMP180;53212;52.112;5.144;2022-12-18T00:16:26;102716.80;;;-3.20
66403;BMP180;53212;52.112;5.144;2022-12-18T00:18:54;102722.60;;;-3.12
66403;BMP180;53212;52.112;5.144;2022-12-18T00:21:21;102722.00;;;-3.20
66403;BMP180;53212;52.112;5.144;2022-12-18T00:23:48;102726.40;;;-3.20
66403;BMP180;53212;52.112;5.144;2022-12-18T00:26:17;102727.80;;;-3.20
66403;BMP180;53212;52.112;5.144;2022-12-18T00:28:45;102730.00;;;-3.20
66403;BMP180;53212;52.112;5.144;2022-12-18T00:31:14;102726.60;;;-3.20
66403;BMP180;53212;52.112;5.144;2022-12-18T00:33:40;102728.20;;;-3.20
66403;BMP180;53212;52.112;5.144;2022-12-18T00:36:13;102724.60;;;-3.20
66403;BMP180;53212;52.112;5.144;2022-12-18T00:38:40;102716.20;;;-3.20
66403;BMP180;53212;52.112;5.144;2022-12-18T00:41:06;102721.20;;;-3.20
66403;BMP180;53212;52.112;5.144;2022-12-18T00:43:34;102718.00;;;-3.20
66403;BMP180;53212;52.112;5.144;2022-12-18T00:45:59;102715.00;;;-3.20
66403;BMP180;53212;52.112;5.144;2022-12-18T00:48:25;102709.60;;;-3.20
66403;BMP180;53212;52.112;5.144;2022-12-18T00:50:51;102704.80;;;-3.20
66403;BMP180;53212;52.112;5.144;2022-12-18T00:53:17;102708.80;;;-3.20
66403;BMP180;53212;52.112;5.144;2022-12-18T00:55:43;102708.40;;;-3.30
66403;BMP180;53212;52.112;5.144;2022-12-18T00:58:11;102717.60;;;-3.30
66403;BMP180;53212;52.112;5.144;2022-12-18T01:00:37;102716.40;;;-3.32
66403;BMP180;53212;52.112;5.144;2022-12-18T01:03:04;102710.60;;;-3.40
66403;BMP180;53212;52.112;5.144;2022-12-18T01:05:31;102716.00;;;-3.50
66403;BMP180;53212;52.112;5.144;2022-12-18T01:07:57;102725.00;;;-3.50
66403;BMP180;53212;52.112;5.144;2022-12-18T01:10:23;102730.00;;;-3.52
66403;BMP180;53212;52.112;5.144;2022-12-18T01:12:49;102732.00;;;-3.58
66403;BMP180;53212;52.112;5.144;2022-12-18T01:15:15;102726.20;;;-3.60
66403;BMP180;53212;52.112;5.144;2022-12-18T01:17:42;102728.40;;;-3.60
66403;BMP180;53212;52.112;5.144;2022-12-18T01:20:09;102720.60;;;-3.54
66403;BMP180;53212;52.112;5.144;2022-12-18T01:22:36;102726.00;;;-3.56
66403;BMP180;53212;52.112;5.144;2022-12-18T01:25:02;102728.40;;;-3.52
66403;BMP180;53212;52.112;5.144;2022-12-18T01:27:28;102725.40;;;-3.50
66403;BMP180;53212;52.112;5.144;2022-12-18T01:29:53;102723.20;;;-3.50
66403;BMP180;53212;52.112;5.144;2022-12-18T01:32:19;102720.20;;;-3.60
66403;BMP180;53212;52.112;5.144;2022-12-18T01:34:45;102718.40;;;-3.60
66403;BMP180;53212;52.112;5.144;2022-12-18T01:37:10;102727.20;;;-3.60
66403;BMP180;53212;52.112;5.144;2022-12-18T01:39:36;102729.40;;;-3.70
66403;BMP180;53212;52.112;5.144;2022-12-18T01:42:12;102729.60;;;-3.70
66403;BMP180;53212;52.112;5.144;2022-12-18T01:45:22;102733.80;;;-3.70
66403;BMP180;53212;52.112;5.144;2022-12-18T01:48:07;102732.00;;;-3.70
66403;BMP180;53212;52.112;5.144;2022-12-18T01:50:39;102731.60;;;-3.70
66403;BMP180;53212;52.112;5.144;2022-12-18T01:53:21;102734.40;;;-3.70
66403;BMP180;53212;52.112;5.144;2022-12-18T01:55:55;102733.00;;;-3.70
66403;BMP180;53212;52.112;5.144;2022-12-18T02:01:12;102735.20;;;-3.70
66403;BMP180;53212;52.112;5.144;2022-12-18T02:03:42;102739.80;;;-3.80
66403;BMP180;53212;52.112;5.144;2022-12-18T02:11:47;102756.20;;;-3.80
66403;BMP180;53212;52.112;5.144;2022-12-18T02:14:32;102759.40;;;-3.80
66403;BMP180;53212;52.112;5.144;2022-12-18T02:17:22;102752.40;;;-3.80
66403;BMP180;53212;52.112;5.144;2022-12-18T02:20:19;102761.20;;;-3.90
66403;BMP180;53212;52.112;5.144;2022-12-18T02:23:52;102764.40;;;-3.90
66403;BMP180;53212;52.112;5.144;2022-12-18T02:26:37;102769.40;;;-3.96
66403;BMP180;53212;52.112;5.144;2022-12-18T02:29:18;102763.60;;;-4.00
66403;BMP180;53212;52.112;5.144;2022-12-18T02:32:11;102758.60;;;-3.98
66403;BMP180;53212;52.112;5.144;2022-12-18T02:34:40;102757.80;;;-4.00
66403;BMP180;53212;52.112;5.144;2022-12-18T02:37:12;102758.80;;;-4.08
66403;BMP180;53212;52.112;5.144;2022-12-18T02:39:43;102755.40;;;-4.10
66403;BMP180;53212;52.112;5.144;2022-12-18T02:42:09;102756.80;;;-4.20
66403;BMP180;53212;52.112;5.144;2022-12-18T02:44:43;102751.20;;;-4.30
66403;BMP180;53212;52.112;5.144;2022-12-18T02:47:11;102745.20;;;-4.30
66403;BMP180;53212;52.112;5.144;2022-12-18T02:55:23;102740.20;;;-4.50
66403;BMP180;53212;52.112;5.144;2022-12-18T02:57:59;102729.60;;;-4.60
66403;BMP180;53212;52.112;5.144;2022-12-18T03:00:51;102724.20;;;-4.64
66403;BMP180;53212;52.112;5.144;2022-12-18T03:03:36;102728.00;;;-4.70
66403;BMP180;53212;52.112;5.144;2022-12-18T03:06:10;102726.40;;;-4.70
66403;BMP180;53212;52.112;5.144;2022-12-18T03:08:41;102714.60;;;-4.80
66403;BMP180;53212;52.112;5.144;2022-12-18T03:11:13;102709.00;;;-4.82
66403;BMP180;53212;52.112;5.144;2022-12-18T03:13:45;102710.40;;;-4.90
66403;BMP180;53212;52.112;5.144;2022-12-18T03:16:16;102701.40;;;-4.90
66403;BMP180;53212;52.112;5.144;2022-12-18T03:18:58;102708.40;;;-4.90
66403;BMP180;53212;52.112;5.144;2022-12-18T03:21:33;102699.80;;;-5.00
66403;BMP180;53212;52.112;5.144;2022-12-18T03:24:00;102692.40;;;-5.00
66403;BMP180;53212;52.112;5.144;2022-12-18T03:26:27;102688.00;;;-5.00
66403;BMP180;53212;52.112;5.144;2022-12-18T03:29:00;102688.00;;;-5.00
66403;BMP180;53212;52.112;5.144;2022-12-18T03:31:29;102683.60;;;-5.00
66403;BMP180;53212;52.112;5.144;2022-12-18T03:33:59;102682.80;;;-5.02
66403;BMP180;53212;52.112;5.144;2022-12-18T03:36:26;102683.60;;;-5.10
66403;BMP180;53212;52.112;5.144;2022-12-18T03:38:52;102685.60;;;-5.10
66403;BMP180;53212;52.112;5.144;2022-12-18T03:41:29;102684.20;;;-5.18
66403;BMP180;53212;52.112;5.144;2022-12-18T03:44:23;102678.60;;;-5.20
66403;BMP180;53212;52.112;5.144;2022-12-18T03:50:00;102673.00;;;-5.26
66403;BMP180;53212;52.112;5.144;2022-12-18T03:52:40;102666.00;;;-5.30
66403;BMP180;53212;52.112;5.144;2022-12-18T03:55:10;102666.00;;;-5.40
66403;BMP180;53212;52.112;5.144;2022-12-18T03:57:37;102665.40;;;-5.30
66403;BMP180;53212;52.112;5.144;2022-12-18T04:00:08;102658.40;;;-5.30
66403;BMP180;53212;52.112;5.144;2022-12-18T04:02:37;102654.80;;;-5.36
66403;BMP180;53212;52.112;5.144;2022-12-18T04:05:06;102648.60;;;-5.40
66403;BMP180;53212;52.112;5.144;2022-12-18T04:07:32;102646.60;;;-5.46
66403;BMP180;53212;52.112;5.144;2022-12-18T04:09:59;102645.40;;;-5.40
66403;BMP180;53212;52.112;5.144;2022-12-18T04:12:29;102638.80;;;-5.50
66403;BMP180;53212;52.112;5.144;2022-12-18T04:14:54;102633.00;;;-5.50
66403;BMP180;53212;52.112;5.144;2022-12-18T04:17:21;102628.80;;;-5.50
66403;BMP180;53212;52.112;5.144;2022-12-18T04:19:47;102629.00;;;-5.44
66403;BMP180;53212;52.112;5.144;2022-12-18T04:22:13;102628.60;;;-5.50
66403;BMP180;53212;52.112;5.144;2022-12-18T04:24:38;102627.80;;;-5.50
66403;BMP180;53212;52.112;5.144;2022-12-18T04:27:07;102632.00;;;-5.52
66403;BMP180;53212;52.112;5.144;2022-12-18T04:29:32;102633.20;;;-5.54
66403;BMP180;53212;52.112;5.144;2022-12-18T04:31:58;102638.20;;;-5.58
66403;BMP180;53212;52.112;5.144;2022-12-18T04:34:23;102640.80;;;-5.60
66403;BMP180;53212;52.112;5.144;2022-12-18T04:36:49;102647.40;;;-5.60
66403;BMP180;53212;52.112;5.144;2022-12-18T04:39:14;102652.80;;;-5.60
66403;BMP180;53212;52.112;5.144;2022-12-18T04:41:40;102651.80;;;-5.60
66403;BMP180;53212;52.112;5.144;2022-12-18T04:44:06;102650.80;;;-5.60
66403;BMP180;53212;52.112;5.144;2022-12-18T04:46:32;102655.80;;;-5.60
66403;BMP180;53212;52.112;5.144;2022-12-18T04:48:57;102658.80;;;-5.60
66403;BMP180;53212;52.112;5.144;2022-12-18T04:51:22;102659.60;;;-5.60
66403;BMP180;53212;52.112;5.144;2022-12-18T04:53:48;102663.40;;;-5.68
66403;BMP180;53212;52.112;5.144;2022-12-18T04:56:15;102670.20;;;-5.70
66403;BMP180;53212;52.112;5.144;2022-12-18T04:58:43;102676.60;;;-5.70
66403;BMP180;53212;52.112;5.144;2022-12-18T05:01:10;102678.00;;;-5.76
66403;BMP180;53212;52.112;5.144;2022-12-18T05:03:36;102681.40;;;-5.80
66403;BMP180;53212;52.112;5.144;2022-12-18T05:06:04;102675.80;;;-5.80
66403;BMP180;53212;52.112;5.144;2022-12-18T05:08:30;102682.20;;;-5.80
66403;BMP180;53212;52.112;5.144;2022-12-18T05:11:07;102684.00;;;-5.80
66403;BMP180;53212;52.112;5.144;2022-12-18T05:13:34;102679.40;;;-5.80
66403;BMP180;53212;52.112;5.144;2022-12-18T05:16:00;102686.20;;;-5.80
66403;BMP180;53212;52.112;5.144;2022-12-18T05:18:26;102683.80;;;-5.86
66403;BMP180;53212;52.112;5.144;2022-12-18T05:20:53;102683.20;;;-5.90
66403;BMP180;53212;52.112;5.144;2022-12-18T05:23:19;102685.80;;;-5.90
66403;BMP180;53212;52.112;5.144;2022-12-18T05:25:53;102693.20;;;-5.90
66403;BMP180;53212;52.112;5.144;2022-12-18T05:28:21;102700.60;;;-5.90
66403;BMP180;53212;52.112;5.144;2022-12-18T05:30:52;102696.40;;;-5.90
66403;BMP180;53212;52.112;5.144;2022-12-18T05:33:22;102702.40;;;-5.96
66403;BMP180;53212;52.112;5.144;2022-12-18T05:35:53;102696.20;;;-5.92
66403;BMP180;53212;52.112;5.144;2022-12-18T05:38:21;102691.60;;;-5.98
66403;BMP180;53212;52.112;5.144;2022-12-18T05:40:48;102696.60;;;-5.90
66403;BMP180;53212;52.112;5.144;2022-12-18T05:43:14;102690.80;;;-5.90
66403;BMP180;53212;52.112;5.144;2022-12-18T05:45:40;102684.40;;;-5.92
66403;BMP180;53212;52.112;5.144;2022-12-18T05:48:06;102682.60;;;-5.94
66403;BMP180;53212;52.112;5.144;2022-12-18T05:50:36;102684.60;;;-5.92
66403;BMP180;53212;52.112;5.144;2022-12-18T05:53:03;102680.20;;;-6.00
66403;BMP180;53212;52.112;5.144;2022-12-18T05:55:33;102675.60;;;-6.00
66403;BMP180;53212;52.112;5.144;2022-12-18T05:57:59;102678.80;;;-6.00
66403;BMP180;53212;52.112;5.144;2022-12-18T06:00:25;102672.60;;;-6.10
66403;BMP180;53212;52.112;5.144;2022-12-18T06:02:50;102661.60;;;-6.10
66403;BMP180;53212;52.112;5.144;2022-12-18T06:05:16;102659.60;;;-6.10
66403;BMP180;53212;52.112;5.144;2022-12-18T06:07:41;102653.40;;;-6.08
66403;BMP180;53212;52.112;5.144;2022-12-18T06:10:07;102655.00;;;-6.10
66403;BMP180;53212;52.112;5.144;2022-12-18T06:12:32;102649.60;;;-6.10
66403;BMP180;53212;52.112;5.144;2022-12-18T06:14:59;102642.00;;;-6.10
66403;BMP180;53212;52.112;5.144;2022-12-18T06:17:32;102642.40;;;-6.10
66403;BMP180;53212;52.112;5.144;2022-12-18T06:19:58;102644.80;;;-6.10
66403;BMP180;53212;52.112;5.144;2022-12-18T06:22:24;102642.80;;;-6.12
66403;BMP180;53212;52.112;5.144;2022-12-18T06:24:50;102640.40;;;-6.18
66403;BMP180;53212;52.112;5.144;2022-12-18T06:27:15;102645.60;;;-6.18
66403;BMP180;53212;52.112;5.144;2022-12-18T06:29:41;102648.60;;;-6.20
66403;BMP180;53212;52.112;5.144;2022-12-18T06:32:06;102653.80;;;-6.20
66403;BMP180;53212;52.112;5.144;2022-12-18T06:34:33;102642.80;;;-6.20
66403;BMP180;53212;52.112;5.144;2022-12-18T06:36:58;102637.00;;;-6.20
66403;BMP180;53212;52.112;5.144;2022-12-18T06:39:27;102626.40;;;-6.20
66403;BMP180;53212;52.112;5.144;2022-12-18T06:41:52;102624.80;;;-6.20
66403;BMP180;53212;52.112;5.144;2022-12-18T06:44:18;102620.60;;;-6.16
66403;BMP180;53212;52.112;5.144;2022-12-18T06:46:43;102621.20;;;-6.20
66403;BMP180;53212;52.112;5.144;2022-12-18T06:49:09;102614.20;;;-6.20
66403;BMP180;53212;52.112;5.144;2022-12-18T06:51:35;102603.80;;;-6.20
66403;BMP180;53212;52.112;5.144;2022-12-18T06:54:00;102601.00;;;-6.20
66403;BMP180;53212;52.112;5.144;2022-12-18T06:56:26;102595.00;;;-6.20
66403;BMP180;53212;52.112;5.144;2022-12-18T06:58:52;102595.40;;;-6.20
66403;BMP180;53212;52.112;5.144;2022-12-18T07:01:17;102591.20;;;-6.22
66403;BMP180;53212;52.112;5.144;2022-12-18T07:03:43;102593.80;;;-6.24
66403;BMP180;53212;52.112;5.144;2022-12-18T07:06:18;102596.80;;;-6.28
66403;BMP180;53212;52.112;5.144;2022-12-18T07:08:45;102594.20;;;-6.30
66403;BMP180;53212;52.112;5.144;2022-12-18T07:11:12;102587.20;;;-6.30
66403;BMP180;53212;52.112;5.144;2022-12-18T07:13:37;102585.40;;;-6.30
66403;BMP180;53212;52.112;5.144;2022-12-18T07:16:15;102583.00;;;-6.28
66403;BMP180;53212;52.112;5.144;2022-12-18T07:18:40;102580.00;;;-6.20
66403;BMP180;53212;52.112;5.144;2022-12-18T07:21:09;102579.00;;;-6.20
66403;BMP180;53212;52.112;5.144;2022-12-18T07:23:35;102574.60;;;-6.20
66403;BMP180;53212;52.112;5.144;2022-12-18T07:26:20;102577.60;;;-6.20
66403;BMP180;53212;52.112;5.144;2022-12-18T07:28:47;102578.60;;;-6.20
66403;BMP180;53212;52.112;5.144;2022-12-18T07:31:16;102574.20;;;-6.20
66403;BMP180;53212;52.112;5.144;2022-12-18T07:33:44;102566.80;;;-6.20
66403;BMP180;53212;52.112;5.144;2022-12-18T07:36:10;102561.80;;;-6.10
66403;BMP180;53212;52.112;5.144;2022-12-18T07:38:36;102555.40;;;-6.10
66403;BMP180;53212;52.112;5.144;2022-12-18T07:41:11;102548.60;;;-6.10
66403;BMP180;53212;52.112;5.144;2022-12-18T07:43:37;102545.00;;;-6.10
66403;BMP180;53212;52.112;5.144;2022-12-18T07:46:04;102534.20;;;-6.10
66403;BMP180;53212;52.112;5.144;2022-12-18T07:48:29;102541.60;;;-6.10
66403;BMP180;53212;52.112;5.144;2022-12-18T07:51:05;102539.80;;;-6.10
66403;BMP180;53212;52.112;5.144;2022-12-18T07:53:33;102535.80;;;-6.10
66403;BMP180;53212;52.112;5.144;2022-12-18T07:56:03;102529.00;;;-6.02
66403;BMP180;53212;52.112;5.144;2022-12-18T07:58:30;102524.80;;;-6.00
66403;BMP180;53212;52.112;5.144;2022-12-18T08:01:11;102520.20;;;-5.94
66403;BMP180;53212;52.112;5.144;2022-12-18T08:03:38;102513.40;;;-5.90
66403;BMP180;53212;52.112;5.144;2022-12-18T08:06:08;102515.80;;;-5.84
66403;BMP180;53212;52.112;5.144;2022-12-18T08:08:34;102524.60;;;-5.80
66403;BMP180;53212;52.112;5.144;2022-12-18T08:11:00;102524.60;;;-5.74
66403;BMP180;53212;52.112;5.144;2022-12-18T08:13:26;102525.40;;;-5.70
66403;BMP180;53212;52.112;5.144;2022-12-18T08:16:03;102530.20;;;-5.60
66403;BMP180;53212;52.112;5.144;2022-12-18T08:18:29;102531.60;;;-5.60
66403;BMP180;53212;52.112;5.144;2022-12-18T08:20:55;102541.00;;;-5.50
66403;BMP180;53212;52.112;5.144;2022-12-18T08:23:21;102544.60;;;-5.42
66403;BMP180;53212;52.112;5.144;2022-12-18T08:25:47;102542.00;;;-5.40
66403;BMP180;53212;52.112;5.144;2022-12-18T08:28:12;102544.20;;;-5.38
66403;BMP180;53212;52.112;5.144;2022-12-18T08:30:38;102545.20;;;-5.30
66403;BMP180;53212;52.112;5.144;2022-12-18T08:33:04;102543.40;;;-5.30
66403;BMP180;53212;52.112;5.144;2022-12-18T08:35:29;102545.40;;;-5.24
66403;BMP180;53212;52.112;5.144;2022-12-18T08:37:55;102549.80;;;-5.20
66403;BMP180;53212;52.112;5.144;2022-12-18T08:40:20;102555.80;;;-5.20
66403;BMP180;53212;52.112;5.144;2022-12-18T08:42:46;102541.40;;;-5.10
66403;BMP180;53212;52.112;5.144;2022-12-18T08:45:30;102529.00;;;-5.10
66403;BMP180;53212;52.112;5.144;2022-12-18T08:47:55;102522.40;;;-5.04
66403;BMP180;53212;52.112;5.144;2022-12-18T08:50:20;102519.40;;;-5.00
66403;BMP180;53212;52.112;5.144;2022-12-18T08:52:46;102522.20;;;-4.90
66403;BMP180;53212;52.112;5.144;2022-12-18T08:55:11;102521.00;;;-4.90
66403;BMP180;53212;52.112;5.144;2022-12-18T08:57:37;102525.20;;;-4.80
66403;BMP180;53212;52.112;5.144;2022-12-18T09:00:04;102526.00;;;-4.80
66403;BMP180;53212;52.112;5.144;2022-12-18T09:02:29;102514.80;;;-4.70
66403;BMP180;53212;52.112;5.144;2022-12-18T09:04:55;102511.80;;;-4.70
66403;BMP180;53212;52.112;5.144;2022-12-18T09:07:20;102509.40;;;-4.64
66403;BMP180;53212;52.112;5.144;2022-12-18T09:09:46;102523.40;;;-4.60
66403;BMP180;53212;52.112;5.144;2022-12-18T09:12:11;102528.80;;;-4.50
66403;BMP180;53212;52.112;5.144;2022-12-18T09:14:37;102531.60;;;-4.50
66403;BMP180;53212;52.112;5.144;2022-12-18T09:17:02;102533.40;;;-4.40
66403;BMP180;53212;52.112;5.144;2022-12-18T09:19:28;102523.80;;;-4.38
66403;BMP180;53212;52.112;5.144;2022-12-18T09:21:53;102527.80;;;-4.30
66403;BMP180;53212;52.112;5.144;2022-12-18T09:24:19;102533.80;;;-4.20
66403;BMP180;53212;52.112;5.144;2022-12-18T09:26:44;102534.60;;;-4.20
66403;BMP180;53212;52.112;5.144;2022-12-18T09:29:09;102544.60;;;-4.10
66403;BMP180;53212;52.112;5.144;2022-12-18T09:31:36;102532.80;;;-4.10
66403;BMP180;53212;52.112;5.144;2022-12-18T09:34:01;102524.00;;;-4.00
66403;BMP180;53212;52.112;5.144;2022-12-18T09:36:27;102515.40;;;-4.00
66403;BMP180;53212;52.112;5.144;2022-12-18T09:38:52;102508.60;;;-3.94
66403;BMP180;53212;52.112;5.144;2022-12-18T09:41:47;102496.80;;;-3.90
66403;BMP180;53212;52.112;5.144;2022-12-18T09:44:22;102505.80;;;-3.80
66403;BMP180;53212;52.112;5.144;2022-12-18T09:47:13;102506.00;;;-3.80
66403;BMP180;53212;52.112;5.144;2022-12-18T09:49:44;102510.00;;;-3.70
66403;BMP180;53212;52.112;5.144;2022-12-18T09:52:37;102506.00;;;-3.70
66403;BMP180;53212;52.112;5.144;2022-12-18T09:55:29;102502.00;;;-3.60
66403;BMP180;53212;52.112;5.144;2022-12-18T09:58:24;102495.20;;;-3.52
66403;BMP180;53212;52.112;5.144;2022-12-18T10:00:53;102482.80;;;-3.50
66403;BMP180;53212;52.112;5.144;2022-12-18T10:03:19;102484.40;;;-3.40
66403;BMP180;53212;52.112;5.144;2022-12-18T10:12:28;102485.80;;;-3.24
66403;BMP180;53212;52.112;5.144;2022-12-18T10:15:14;102488.80;;;-3.20
66403;BMP180;53212;52.112;5.144;2022-12-18T10:18:15;102492.60;;;-3.16
66403;BMP180;53212;52.112;5.144;2022-12-18T10:20:49;102488.40;;;-3.10
66403;BMP180;53212;52.112;5.144;2022-12-18T10:23:27;102490.80;;;-3.00
66403;BMP180;53212;52.112;5.144;2022-12-18T10:26:00;102485.00;;;-3.00
66403;BMP180;53212;52.112;5.144;2022-12-18T10:28:27;102487.80;;;-3.00
66403;BMP180;53212;52.112;5.144;2022-12-18T10:30:54;102480.80;;;-2.90
66403;BMP180;53212;52.112;5.144;2022-12-18T10:33:24;102478.60;;;-2.90
66403;BMP180;53212;52.112;5.144;2022-12-18T10:35:50;102469.80;;;-2.80
66403;BMP180;53212;52.112;5.144;2022-12-18T10:43:20;102462.80;;;-2.70
66403;BMP180;53212;52.112;5.144;2022-12-18T10:46:12;102456.40;;;-2.60
66403;BMP180;53212;52.112;5.144;2022-12-18T10:48:59;102454.80;;;-2.50
66403;BMP180;53212;52.112;5.144;2022-12-18T10:51:32;102453.40;;;-2.46
66403;BMP180;53212;52.112;5.144;2022-12-18T10:54:07;102455.20;;;-2.40
66403;BMP180;53212;52.112;5.144;2022-12-18T10:56:38;102449.80;;;-2.40
66403;BMP180;53212;52.112;5.144;2022-12-18T10:59:13;102437.20;;;-2.30
66403;BMP180;53212;52.112;5.144;2022-12-18T11:01:57;102433.00;;;-2.30
66403;BMP180;53212;52.112;5.144;2022-12-18T11:04:31;102432.20;;;-2.20
66403;BMP180;53212;52.112;5.144;2022-12-18T11:07:06;102431.80;;;-2.14
66403;BMP180;53212;52.112;5.144;2022-12-18T11:09:40;102426.20;;;-2.10
66403;BMP180;53212;52.112;5.144;2022-12-18T11:12:19;102421.40;;;-2.08
66403;BMP180;53212;52.112;5.144;2022-12-18T11:14:51;102415.20;;;-2.00
66403;BMP180;53212;52.112;5.144;2022-12-18T11:17:30;102407.00;;;-1.90
66403;BMP180;53212;52.112;5.144;2022-12-18T11:20:02;102419.00;;;-1.88
66403;BMP180;53212;52.112;5.144;2022-12-18T11:22:35;102413.20;;;-1.80
66403;BMP180;53212;52.112;5.144;2022-12-18T11:25:28;102411.80;;;-1.80
66403;BMP180;53212;52.112;5.144;2022-12-18T11:28:24;102408.20;;;-1.70
66403;BMP180;53212;52.112;5.144;2022-12-18T11:31:28;102409.20;;;-1.62
66403;BMP180;53212;52.112;5.144;2022-12-18T11:34:00;102409.20;;;-1.60
66403;BMP180;53212;52.112;5.144;2022-12-18T11:36:39;102405.40;;;-1.54
66403;BMP180;53212;52.112;5.144;2022-12-18T11:39:30;102406.20;;;-1.50
66403;BMP180;53212;52.112;5.144;2022-12-18T11:42:08;102409.60;;;-1.48
66403;BMP180;53212;52.112;5.144;2022-12-18T11:44:51;102407.60;;;-1.46
66403;BMP180;53212;52.112;5.144;2022-12-18T11:47:36;102399.40;;;-1.48
66403;BMP180;53212;52.112;5.144;2022-12-18T11:50:14;102398.80;;;-1.50
66403;BMP180;53212;52.112;5.144;2022-12-18T11:52:41;102397.40;;;-1.40
66403;BMP180;53212;52.112;5.144;2022-12-18T11:55:16;102388.60;;;-1.40
66403;BMP180;53212;52.112;5.144;2022-12-18T12:06:47;102349.20;;;-1.40
66403;BMP180;53212;52.112;5.144;2022-12-18T12:09:33;102339.40;;;-1.30
66403;BMP180;53212;52.112;5.144;2022-12-18T12:15:03;102329.20;;;-1.26
66403;BMP180;53212;52.112;5.144;2022-12-18T12:17:42;102333.80;;;-1.20
66403;BMP180;53212;52.112;5.144;2022-12-18T12:23:50;102326.80;;;-1.10
66403;BMP180;53212;52.112;5.144;2022-12-18T12:32:32;102320.80;;;-1.00
66403;BMP180;53212;52.112;5.144;2022-12-18T12:39:05;102309.60;;;-1.00
66403;BMP180;53212;52.112;5.144;2022-12-18T12:41:05;102303.20;;;-1.00
66403;BMP180;53212;52.112;5.144;2022-12-18T12:43:46;102298.80;;;-0.98
66403;BMP180;53212;52.112;5.144;2022-12-18T12:46:17;102292.60;;;-0.96
66403;BMP180;53212;52.112;5.144;2022-12-18T12:48:55;102286.00;;;-0.94
66403;BMP180;53212;52.112;5.144;2022-12-18T12:51:28;102289.20;;;-0.96
66403;BMP180;53212;52.112;5.144;2022-12-18T12:53:56;102290.20;;;-0.98
66403;BMP180;53212;52.112;5.144;2022-12-18T12:56:25;102286.80;;;-1.00
66403;BMP180;53212;52.112;5.144;2022-12-18T13:01:52;102286.20;;;-0.94
66403;BMP180;53212;52.112;5.144;2022-12-18T13:04:27;102281.20;;;-1.00
66403;BMP180;53212;52.112;5.144;2022-12-18T13:07:25;102280.20;;;-1.00
66403;BMP180;53212;52.112;5.144;2022-12-18T13:13:14;102279.80;;;-1.00
66403;BMP180;53212;52.112;5.144;2022-12-18T13:15:47;102275.40;;;-1.00
66403;BMP180;53212;52.112;5.144;2022-12-18T13:18:21;102279.20;;;-1.00
66403;BMP180;53212;52.112;5.144;2022-12-18T13:34:26;102255.00;;;-1.10
66403;BMP180;53212;52.112;5.144;2022-12-18T13:36:54;102255.40;;;-1.10
66403;BMP180;53212;52.112;5.144;2022-12-18T13:39:21;102244.40;;;-1.10
66403;BMP180;53212;52.112;5.144;2022-12-18T13:45:00;102230.80;;;-1.10
66403;BMP180;53212;52.112;5.144;2022-12-18T13:47:34;102223.80;;;-1.10
66403;BMP180;53212;52.112;5.144;2022-12-18T13:50:20;102218.40;;;-1.10
66403;BMP180;53212;52.112;5.144;2022-12-18T13:52:47;102220.40;;;-1.10
66403;BMP180;53212;52.112;5.144;2022-12-18T13:55:19;102215.00;;;-1.10
66403;BMP180;53212;52.112;5.144;2022-12-18T13:57:45;102210.60;;;-1.10
66403;BMP180;53212;52.112;5.144;2022-12-18T14:00:26;102204.40;;;-1.10
66403;BMP180;53212;52.112;5.144;2022-12-18T14:02:55;102206.00;;;-1.10
66403;BMP180;53212;52.112;5.144;2022-12-18T14:07:53;102199.40;;;-1.08
66403;BMP180;53212;52.112;5.144;2022-12-18T14:10:19;102201.40;;;-1.06
66403;BMP180;53212;52.112;5.144;2022-12-18T14:12:48;102196.40;;;-1.04
66403;BMP180;53212;52.112;5.144;2022-12-18T14:17:52;102204.80;;;-1.00
66403;BMP180;53212;52.112;5.144;2022-12-18T14:20:20;102198.00;;;-1.00
66403;BMP180;53212;52.112;5.144;2022-12-18T14:22:48;102201.60;;;-1.00
66403;BMP180;53212;52.112;5.144;2022-12-18T14:25:22;102195.40;;;-0.90
66403;BMP180;53212;52.112;5.144;2022-12-18T14:30:33;102190.20;;;-0.90
66403;BMP180;53212;52.112;5.144;2022-12-18T14:33:12;102179.80;;;-0.90
66403;BMP180;53212;52.112;5.144;2022-12-18T14:35:52;102169.40;;;-0.88
66403;BMP180;53212;52.112;5.144;2022-12-18T14:43:24;102163.00;;;-0.82
66403;BMP180;53212;52.112;5.144;2022-12-18T14:45:50;102156.80;;;-0.86
66403;BMP180;53212;52.112;5.144;2022-12-18T14:48:42;102166.20;;;-0.80
66403;BMP180;53212;52.112;5.144;2022-12-18T14:51:28;102163.00;;;-0.82
66403;BMP180;53212;52.112;5.144;2022-12-18T14:54:00;102152.80;;;-0.88
66403;BMP180;53212;52.112;5.144;2022-12-18T14:56:30;102154.00;;;-0.80
66403;BMP180;53212;52.112;5.144;2022-12-18T14:59:13;102157.20;;;-0.80
66403;BMP180;53212;52.112;5.144;2022-12-18T15:02:03;102147.80;;;-0.86
66403;BMP180;53212;52.112;5.144;2022-12-18T15:04:35;102148.80;;;-0.90
66403;BMP180;53212;52.112;5.144;2022-12-18T15:07:17;102140.20;;;-0.90
66403;BMP180;53212;52.112;5.144;2022-12-18T15:15:04;102139.20;;;-0.90
66403;BMP180;53212;52.112;5.144;2022-12-18T15:17:29;102140.20;;;-0.90
66403;BMP180;53212;52.112;5.144;2022-12-18T15:20:09;102142.80;;;-0.90
66403;BMP180;53212;52.112;5.144;2022-12-18T15:22:36;102135.80;;;-0.90
66403;BMP180;53212;52.112;5.144;2022-12-18T15:25:22;102128.40;;;-0.90
66403;BMP180;53212;52.112;5.144;2022-12-18T15:27:50;102123.80;;;-0.90
66403;BMP180;53212;52.112;5.144;2022-12-18T15:30:20;102124.00;;;-0.90
66403;BMP180;53212;52.112;5.144;2022-12-18T15:32:47;102128.80;;;-0.90
66403;BMP180;53212;52.112;5.144;2022-12-18T15:35:23;102133.60;;;-0.90
66403;BMP180;53212;52.112;5.144;2022-12-18T15:37:51;102126.80;;;-0.90
66403;BMP180;53212;52.112;5.144;2022-12-18T15:40:22;102126.00;;;-0.96
66403;BMP180;53212;52.112;5.144;2022-12-18T15:42:52;102121.60;;;-0.96
66403;BMP180;53212;52.112;5.144;2022-12-18T15:45:37;102109.40;;;-0.96
66403;BMP180;53212;52.112;5.144;2022-12-18T15:48:21;102110.20;;;-0.98
66403;BMP180;53212;52.112;5.144;2022-12-18T15:50:50;102103.40;;;-0.96
66403;BMP180;53212;52.112;5.144;2022-12-18T15:53:16;102100.80;;;-0.96
66403;BMP180;53212;52.112;5.144;2022-12-18T15:55:41;102109.60;;;-0.96